Time;durP1;ratioP1;P1;durP2;ratioP2;P2;SDS_P1;SDS_P2;PMS_P1;PMS_P2;Temp;Humidity;BMP_temperature;BMP_pressure;BME280_temperature;BME280_humidity;BME280_pressure;Samples;Min_cycle;Max_cycle;Signal;HPM_P1;HPM_P2
2023/03/29 00:01:14;;;;;;;;;;;;;;;22.43;56.93;99966.66;7315625;19;130593;-41
2023/03/29 00:03:42;;;;;;;;;;;;;;;22.42;56.29;99969.41;7316498;19;129193;-40
2023/03/29 00:06:08;;;;;;;;;;;;;;;22.44;56.18;99959.63;7316958;19;128893;-40
2023/03/29 00:08:33;;;;;;;;;;;;;;;22.44;56.25;99964.88;7316355;19;129180;-41
2023/03/29 00:10:59;;;;;;;;;;;;;;;22.42;56.19;99951.09;7315068;19;129433;-41
2023/03/29 00:13:25;;;;;;;;;;;;;;;22.40;56.20;99953.00;7314684;19;129317;-41
2023/03/29 00:15:50;;;;;;;;;;;;;;;22.34;55.84;99937.84;7314526;19;130011;-41
2023/03/29 00:18:16;;;;;;;;;;;;;;;22.34;56.04;99945.69;7315707;19;129746;-40
2023/03/29 00:20:41;;;;;;;;;;;;;;;22.30;55.96;99936.44;7315119;19;130062;-41
2023/03/29 00:23:06;;;;;;;;;;;;;;;22.28;56.47;99938.41;7315003;19;129420;-40
2023/03/29 00:25:31;;;;;;;;;;;;;;;22.26;55.19;99937.69;7315393;19;129393;-41
2023/03/29 00:27:57;;;;;;;;;;;;;;;22.22;55.34;99933.69;7315493;19;129239;-41
2023/03/29 00:30:22;;;;;;;;;;;;;;;22.17;56.41;99936.72;7313571;19;130883;-41
2023/03/29 00:32:47;;;;;;;;;;;;;;;22.14;56.23;99944.00;7314794;19;129088;-41
2023/03/29 00:35:13;;;;;;;;;;;;;;;22.12;55.77;99940.69;7316287;19;128856;-40
2023/03/29 00:37:40;;;;;;;;;;;;;;;22.10;57.21;99940.00;7315620;19;128936;-41
2023/03/29 00:40:09;;;;;;;;;;;;;;;21.95;56.87;99916.81;7314133;19;129465;-41
2023/03/29 00:42:35;;;;;;;;;;;;;;;22.06;56.42;99936.84;7316380;19;129421;-40
2023/03/29 00:45:01;;;;;;;;;;;;;;;22.04;56.09;99930.06;7314158;19;128874;-40
2023/03/29 00:47:26;;;;;;;;;;;;;;;21.98;56.21;99925.38;7315915;19;129188;-41
2023/03/29 00:49:53;;;;;;;;;;;;;;;21.86;56.42;99904.53;7316264;19;129672;-41
2023/03/29 00:52:22;;;;;;;;;;;;;;;21.95;56.20;99919.44;7314891;19;129639;-40
2023/03/29 00:54:53;;;;;;;;;;;;;;;21.94;57.79;99914.34;7311431;19;128831;-39
2023/03/29 00:57:20;;;;;;;;;;;;;;;21.94;56.96;99898.63;7315444;19;128959;-41
2023/03/29 00:59:47;;;;;;;;;;;;;;;21.93;57.07;99905.63;7313936;19;129018;-40
2023/03/29 01:02:12;;;;;;;;;;;;;;;21.89;56.43;99906.88;7315295;19;128752;-41
2023/03/29 01:04:47;;;;;;;;;;;;;;;21.86;56.26;99901.94;7314704;19;128915;-41
2023/03/29 01:07:20;;;;;;;;;;;;;;;21.87;56.95;99895.72;7315639;19;129273;-41
2023/03/29 01:09:51;;;;;;;;;;;;;;;21.86;56.82;99901.94;7314787;19;129115;-41
2023/03/29 01:12:19;;;;;;;;;;;;;;;21.75;56.68;99875.81;7314559;19;129600;-40
2023/03/29 01:14:49;;;;;;;;;;;;;;;21.84;56.60;99882.91;7311306;19;129051;-40
2023/03/29 01:17:14;;;;;;;;;;;;;;;21.84;57.61;99882.06;7312874;19;129218;-40
2023/03/29 01:19:46;;;;;;;;;;;;;;;21.79;56.90;99874.63;7314689;19;128982;-40
2023/03/29 01:22:27;;;;;;;;;;;;;;;21.82;57.90;99878.75;7314717;19;129715;-41
2023/03/29 01:24:55;;;;;;;;;;;;;;;21.80;57.49;99868.41;7312624;19;129003;-41
2023/03/29 01:27:39;;;;;;;;;;;;;;;21.80;57.52;99864.97;7313096;19;129352;-40
2023/03/29 01:30:09;;;;;;;;;;;;;;;21.81;58.45;99867.47;7313638;19;129425;-40
2023/03/29 01:32:47;;;;;;;;;;;;;;;21.77;57.08;99865.25;7314366;19;130787;-39
2023/03/29 01:35:27;;;;;;;;;;;;;;;21.81;57.47;99864.84;7313621;19;129384;-41
2023/03/29 01:37:55;;;;;;;;;;;;;;;21.78;57.64;99857.25;7313627;19;129232;-41
2023/03/29 01:40:21;;;;;;;;;;;;;;;21.76;56.78;99861.81;7314025;19;129423;-41
2023/03/29 01:43:04;;;;;;;;;;;;;;;21.76;57.27;99853.09;7313810;19;129333;-42
2023/03/29 01:45:35;;;;;;;;;;;;;;;21.78;58.34;99852.00;7311559;19;128794;-42
2023/03/29 01:48:07;;;;;;;;;;;;;;;21.78;57.25;99849.41;7311257;19;128914;-41
2023/03/29 01:50:53;;;;;;;;;;;;;;;21.68;58.11;99814.50;7314301;19;128973;-41
2023/03/29 01:53:24;;;;;;;;;;;;;;;21.80;58.61;99833.56;7313541;19;129601;-41
2023/03/29 01:55:52;;;;;;;;;;;;;;;21.82;58.62;99831.63;7312894;19;129262;-41
2023/03/29 01:58:17;;;;;;;;;;;;;;;21.82;57.60;99822.00;7311473;19;129175;-38
2023/03/29 02:00:44;;;;;;;;;;;;;;;21.72;58.44;99821.13;7313420;19;129194;-40
2023/03/29 02:03:09;;;;;;;;;;;;;;;21.83;56.97;99828.88;7313613;19;129453;-41
2023/03/29 02:05:36;;;;;;;;;;;;;;;21.82;57.93;99822.00;7313268;19;130852;-41
2023/03/29 02:08:04;;;;;;;;;;;;;;;21.70;57.79;99799.50;7309713;19;129233;-41
2023/03/29 02:10:30;;;;;;;;;;;;;;;21.78;56.97;99817.19;7313194;19;129096;-41
2023/03/29 02:12:55;;;;;;;;;;;;;;;21.78;57.52;99810.13;7311483;19;129503;-40
2023/03/29 02:15:22;;;;;;;;;;;;;;;21.78;57.64;99809.34;7311330;19;130788;-41
2023/03/29 02:17:48;;;;;;;;;;;;;;;21.80;57.63;99810.84;7312096;19;128884;-40
2023/03/29 02:20:13;;;;;;;;;;;;;;;21.75;57.38;99812.19;7313462;19;129957;-39
2023/03/29 02:22:45;;;;;;;;;;;;;;;21.78;58.33;99811.94;7311864;19;129342;-41
2023/03/29 02:25:11;;;;;;;;;;;;;;;21.79;57.69;99809.19;7313687;19;128780;-40
2023/03/29 02:27:37;;;;;;;;;;;;;;;21.79;58.25;99805.75;7311967;19;129647;-41
2023/03/29 02:30:04;;;;;;;;;;;;;;;21.77;58.40;99803.25;7312791;19;130991;-41
2023/03/29 02:32:44;;;;;;;;;;;;;;;21.68;57.96;99780.47;7311578;19;129532;-41
2023/03/29 02:35:12;;;;;;;;;;;;;;;21.72;58.09;99788.88;7309585;19;129677;-41
2023/03/29 02:37:41;;;;;;;;;;;;;;;21.74;58.75;99786.97;7312642;19;129207;-41
2023/03/29 02:40:11;;;;;;;;;;;;;;;21.73;57.63;99791.38;7312635;19;129045;-41
2023/03/29 02:42:37;;;;;;;;;;;;;;;21.66;58.32;99777.19;7311676;19;129308;-41
2023/03/29 02:45:03;;;;;;;;;;;;;;;21.66;57.70;99777.19;7312025;19;129066;-41
2023/03/29 02:47:32;;;;;;;;;;;;;;;21.65;58.37;99774.72;7311809;19;129186;-40
2023/03/29 02:49:58;;;;;;;;;;;;;;;21.63;58.69;99768.78;7311967;19;129876;-40
2023/03/29 02:52:26;;;;;;;;;;;;;;;21.63;58.57;99767.00;7310004;19;129276;-41
2023/03/29 02:54:53;;;;;;;;;;;;;;;21.58;58.17;99761.34;7309867;19;129229;-40
2023/03/29 02:57:25;;;;;;;;;;;;;;;21.63;59.17;99763.56;7311905;19;128988;-41
2023/03/29 02:59:50;;;;;;;;;;;;;;;21.57;58.55;99754.44;7311824;19;129086;-40
2023/03/29 03:02:16;;;;;;;;;;;;;;;21.62;58.68;99746.19;7311299;19;129217;-40
2023/03/29 03:04:42;;;;;;;;;;;;;;;21.59;57.38;99741.22;7311697;19;129267;-40
2023/03/29 03:07:07;;;;;;;;;;;;;;;21.54;58.40;99736.41;7312062;19;129215;-40
2023/03/29 03:09:33;;;;;;;;;;;;;;;21.54;58.02;99740.81;7311639;19;129321;-41
2023/03/29 03:11:58;;;;;;;;;;;;;;;21.44;58.81;99732.94;7310615;19;129592;-39
2023/03/29 03:14:23;;;;;;;;;;;;;;;21.46;59.49;99733.66;7309575;19;129076;-41
2023/03/29 03:16:49;;;;;;;;;;;;;;;21.49;59.08;99725.53;7309530;19;129139;-41
2023/03/29 03:19:14;;;;;;;;;;;;;;;21.48;59.80;99723.03;7310410;19;129540;-40
2023/03/29 03:21:39;;;;;;;;;;;;;;;21.49;58.35;99724.69;7314864;19;129191;-41
2023/03/29 03:24:06;;;;;;;;;;;;;;;21.48;59.26;99723.88;7318953;19;129666;-41
2023/03/29 03:26:32;;;;;;;;;;;;;;;21.49;59.20;99716.84;7315880;19;129639;-40
2023/03/29 03:28:57;;;;;;;;;;;;;;;21.48;58.71;99729.13;7311470;19;130107;-41
2023/03/29 03:31:22;;;;;;;;;;;;;;;21.42;58.70;99724.41;7317070;19;129350;-41
2023/03/29 03:33:48;;;;;;;;;;;;;;;21.53;59.42;99721.69;7311287;19;128995;-40
2023/03/29 03:36:13;;;;;;;;;;;;;;;21.54;58.76;99720.72;7315926;19;128747;-41
2023/03/29 03:38:38;;;;;;;;;;;;;;;21.45;59.14;99711.06;7312981;19;129458;-41
2023/03/29 03:41:05;;;;;;;;;;;;;;;21.71;57.68;99722.66;7316171;19;129108;-41
2023/03/29 03:43:31;;;;;;;;;;;;;;;22.18;55.69;99707.09;7317441;19;128941;-40
2023/03/29 03:45:56;;;;;;;;;;;;;;;22.70;54.61;99715.25;7315607;19;129080;-41
2023/03/29 03:48:22;;;;;;;;;;;;;;;23.04;53.03;99720.75;7313492;19;131137;-41
2023/03/29 03:50:52;;;;;;;;;;;;;;;23.28;52.36;99713.19;7313862;19;129636;-41
2023/03/29 03:53:17;;;;;;;;;;;;;;;23.46;52.29;99707.97;7317279;19;129004;-41
2023/03/29 03:55:49;;;;;;;;;;;;;;;23.61;51.66;99714.34;7316824;19;129520;-41
2023/03/29 03:58:15;;;;;;;;;;;;;;;23.69;51.36;99715.25;7315929;19;129521;-41
2023/03/29 04:00:40;;;;;;;;;;;;;;;23.80;50.49;99717.63;7312568;19;129165;-41
2023/03/29 04:03:06;;;;;;;;;;;;;;;23.85;50.75;99714.59;7316744;19;129305;-41
2023/03/29 04:05:31;;;;;;;;;;;;;;;23.89;50.68;99710.66;7315272;19;131435;-41
2023/03/29 04:07:56;;;;;;;;;;;;;;;23.91;50.83;99698.22;7315382;19;129265;-41
2023/03/29 04:10:22;;;;;;;;;;;;;;;23.88;50.69;99691.44;7316654;19;130279;-41
2023/03/29 04:12:47;;;;;;;;;;;;;;;24.09;49.79;99706.91;7317106;19;129331;-41
2023/03/29 04:15:12;;;;;;;;;;;;;;;24.12;50.48;99702.19;7312597;19;130272;-41
2023/03/29 04:17:37;;;;;;;;;;;;;;;24.15;50.09;99701.03;7315250;19;130912;-40
2023/03/29 04:20:09;;;;;;;;;;;;;;;24.19;49.90;99697.97;7314998;19;129586;-40
2023/03/29 04:22:34;;;;;;;;;;;;;;;24.12;49.96;99681.16;7314866;19;129077;-40
2023/03/29 04:25:00;;;;;;;;;;;;;;;24.29;49.61;99703.97;7314166;19;130421;-40
2023/03/29 04:27:25;;;;;;;;;;;;;;;24.34;49.53;99701.69;7315334;19;130232;-41
2023/03/29 04:29:50;;;;;;;;;;;;;;;24.33;49.23;99697.41;7311218;19;129484;-40
2023/03/29 04:32:15;;;;;;;;;;;;;;;24.39;49.03;99688.88;7316498;19;129828;-40
2023/03/29 04:34:40;;;;;;;;;;;;;;;24.49;49.35;99694.06;7312239;19;130882;-40
2023/03/29 04:37:09;;;;;;;;;;;;;;;24.46;49.16;99691.75;7314484;19;129404;-41
2023/03/29 04:39:37;;;;;;;;;;;;;;;24.41;49.01;99694.81;7313718;19;129406;-40
2023/03/29 04:42:04;;;;;;;;;;;;;;;24.26;49.86;99691.09;7313932;19;128811;-40
2023/03/29 04:44:29;;;;;;;;;;;;;;;24.13;49.55;99682.81;7314513;19;129194;-39
2023/03/29 04:46:54;;;;;;;;;;;;;;;24.02;50.26;99688.31;7313850;19;129333;-40
2023/03/29 04:49:19;;;;;;;;;;;;;;;23.93;50.17;99685.75;7312175;19;129649;-41
2023/03/29 04:51:45;;;;;;;;;;;;;;;23.78;50.46;99680.22;7312719;19;129128;-40
2023/03/29 04:54:10;;;;;;;;;;;;;;;23.56;50.93;99683.31;7311731;19;129245;-41
2023/03/29 04:56:36;;;;;;;;;;;;;;;23.46;51.70;99679.94;7315819;19;129618;-41
2023/03/29 04:59:01;;;;;;;;;;;;;;;23.31;51.33;99678.78;7311310;19;129540;-41
2023/03/29 05:01:27;;;;;;;;;;;;;;;23.23;51.91;99681.31;7313411;19;129908;-41
2023/03/29 05:03:53;;;;;;;;;;;;;;;23.20;52.50;99682.41;7314203;19;129595;-41
2023/03/29 05:06:18;;;;;;;;;;;;;;;23.18;52.57;99673.06;7312447;19;129882;-41
2023/03/29 05:08:44;;;;;;;;;;;;;;;23.23;52.50;99676.06;7310449;19;129887;-40
2023/03/29 05:11:10;;;;;;;;;;;;;;;23.31;51.99;99668.28;7310532;19;130308;-41
2023/03/29 05:13:36;;;;;;;;;;;;;;;23.39;52.04;99665.75;7309522;19;130111;-41
2023/03/29 05:16:02;;;;;;;;;;;;;;;23.33;51.01;99649.78;7313692;19;129193;-41
2023/03/29 05:18:28;;;;;;;;;;;;;;;23.50;50.72;99657.69;7311145;19;129160;-41
2023/03/29 05:20:53;;;;;;;;;;;;;;;23.60;50.61;99652.34;7313938;19;129460;-41
2023/03/29 05:23:19;;;;;;;;;;;;;;;23.71;50.87;99655.56;7313487;19;129139;-41
2023/03/29 05:25:46;;;;;;;;;;;;;;;23.82;50.28;99651.84;7311956;19;129350;-41
2023/03/29 05:28:12;;;;;;;;;;;;;;;23.90;50.33;99644.84;7311087;19;129447;-40
2023/03/29 05:30:37;;;;;;;;;;;;;;;23.98;49.51;99646.75;7313084;19;129117;-41
2023/03/29 05:33:04;;;;;;;;;;;;;;;24.08;50.08;99643.03;7311612;19;130616;-41
2023/03/29 05:35:29;;;;;;;;;;;;;;;24.18;49.30;99638.50;7308988;19;130894;-41
2023/03/29 05:37:55;;;;;;;;;;;;;;;24.29;49.00;99640.91;7311682;19;129206;-41
2023/03/29 05:40:20;;;;;;;;;;;;;;;24.31;49.07;99638.91;7314167;19;128969;-39
2023/03/29 05:42:45;;;;;;;;;;;;;;;24.27;49.11;99634.97;7313651;19;128783;-41
2023/03/29 05:45:11;;;;;;;;;;;;;;;24.22;49.56;99639.88;7313286;19;129791;-42
2023/03/29 05:47:36;;;;;;;;;;;;;;;24.11;49.74;99640.09;7314376;19;129342;-40
2023/03/29 05:50:01;;;;;;;;;;;;;;;24.03;49.83;99645.31;7314508;19;128942;-40
2023/03/29 05:52:27;;;;;;;;;;;;;;;23.95;50.10;99647.84;7313948;19;129415;-41
2023/03/29 05:54:52;;;;;;;;;;;;;;;23.78;50.47;99648.72;7312292;19;129414;-41
2023/03/29 05:57:17;;;;;;;;;;;;;;;23.68;50.83;99655.88;7309690;19;130409;-40
2023/03/29 05:59:43;;;;;;;;;;;;;;;23.54;50.81;99658.16;7306134;19;130536;-41
2023/03/29 06:02:09;;;;;;;;;;;;;;;23.42;50.98;99654.94;7311374;19;128817;-41
2023/03/29 06:04:35;;;;;;;;;;;;;;;23.43;51.30;99655.78;7311440;19;129222;-41
2023/03/29 06:07:01;;;;;;;;;;;;;;;23.44;51.17;99655.63;7311106;19;129105;-41
2023/03/29 06:09:26;;;;;;;;;;;;;;;23.52;51.12;99654.91;7313069;19;128889;-41
2023/03/29 06:11:51;;;;;;;;;;;;;;;23.42;51.60;99639.22;7312255;19;129016;-40
2023/03/29 06:14:17;;;;;;;;;;;;;;;23.64;51.15;99658.91;7312934;19;129475;-41
2023/03/29 06:16:43;;;;;;;;;;;;;;;23.74;50.67;99657.88;7311307;19;129896;-41
2023/03/29 06:19:09;;;;;;;;;;;;;;;23.76;50.15;99652.47;7311209;19;128995;-41
2023/03/29 06:21:34;;;;;;;;;;;;;;;24.00;50.13;99663.16;7313577;19;128691;-40
2023/03/29 06:23:59;;;;;;;;;;;;;;;23.96;50.16;99648.69;7312293;19;130143;-39
2023/03/29 06:26:26;;;;;;;;;;;;;;;24.14;49.68;99668.72;7312774;19;129265;-40
2023/03/29 06:28:52;;;;;;;;;;;;;;;24.19;49.78;99655.94;7311227;19;129813;-40
2023/03/29 06:31:18;;;;;;;;;;;;;;;24.33;49.25;99663.25;7313461;19;129006;-41
2023/03/29 06:33:44;;;;;;;;;;;;;;;24.35;49.18;99656.03;7312344;19;129440;-41
2023/03/29 06:36:09;;;;;;;;;;;;;;;24.29;49.09;99640.91;7312459;19;129211;-40
2023/03/29 06:38:35;;;;;;;;;;;;;;;24.37;49.40;99661.13;7311681;19;128807;-40
2023/03/29 06:41:04;;;;;;;;;;;;;;;24.25;49.56;99659.72;7312366;19;129382;-40
2023/03/29 06:43:31;;;;;;;;;;;;;;;24.20;49.76;99656.75;7312573;19;129138;-41
2023/03/29 06:45:57;;;;;;;;;;;;;;;23.99;50.24;99643.97;7312166;19;129137;-41
2023/03/29 06:48:22;;;;;;;;;;;;;;;23.95;50.11;99663.59;7311620;19;129467;-41
2023/03/29 06:50:47;;;;;;;;;;;;;;;23.84;50.90;99661.22;7311803;19;129042;-41
2023/03/29 06:53:14;;;;;;;;;;;;;;;23.68;50.96;99661.13;7313358;19;129411;-41
2023/03/29 06:55:40;;;;;;;;;;;;;;;23.53;51.03;99660.00;7317407;19;129177;-40
2023/03/29 06:58:07;;;;;;;;;;;;;;;23.44;51.40;99666.13;7318359;19;128930;-40
2023/03/29 07:00:34;;;;;;;;;;;;;;;23.40;51.43;99659.53;7317373;19;129477;-40
2023/03/29 07:03:02;;;;;;;;;;;;;;;23.41;52.20;99662.97;7319142;19;129425;-41
2023/03/29 07:05:29;;;;;;;;;;;;;;;23.46;51.45;99661.56;7318692;19;129439;-40
2023/03/29 07:10:20;;;;;;;;;;;;;;;23.59;50.86;99656.75;7319093;19;129628;-40
2023/03/29 07:12:46;;;;;;;;;;;;;;;23.74;50.53;99650.00;7318848;19;129017;-40
2023/03/29 07:15:12;;;;;;;;;;;;;;;23.81;51.01;99645.78;7317808;19;129177;-40
2023/03/29 07:17:37;;;;;;;;;;;;;;;23.87;50.16;99633.84;7318783;19;129904;-41
2023/03/29 07:20:07;;;;;;;;;;;;;;;24.02;50.17;99643.66;7317279;19;129000;-40
2023/03/29 07:22:32;;;;;;;;;;;;;;;24.13;50.01;99650.47;7318832;19;129438;-41
2023/03/29 07:24:58;;;;;;;;;;;;;;;24.06;50.04;99625.81;7320105;19;130147;-40
2023/03/29 07:27:25;;;;;;;;;;;;;;;24.30;49.16;99653.03;7317800;19;129203;-40
2023/03/29 07:29:51;;;;;;;;;;;;;;;24.40;49.22;99651.13;7317662;19;128758;-40
2023/03/29 07:32:16;;;;;;;;;;;;;;;24.39;49.53;99653.91;7316425;19;130495;-41
2023/03/29 07:34:41;;;;;;;;;;;;;;;24.40;49.41;99648.50;7316333;19;129542;-41
2023/03/29 07:37:08;;;;;;;;;;;;;;;24.34;49.77;99659.66;7316217;19;129700;-41
2023/03/29 07:39:34;;;;;;;;;;;;;;;24.25;49.55;99655.31;7317429;19;128955;-40
2023/03/29 07:41:59;;;;;;;;;;;;;;;24.17;49.82;99654.44;7317844;19;129122;-40
2023/03/29 07:44:25;;;;;;;;;;;;;;;24.05;50.24;99659.13;7318167;19;130074;-40
2023/03/29 07:46:51;;;;;;;;;;;;;;;23.84;50.40;99640.22;7317766;19;128928;-40
2023/03/29 07:49:16;;;;;;;;;;;;;;;23.80;50.69;99659.88;7313306;19;129540;-41
2023/03/29 07:51:42;;;;;;;;;;;;;;;23.56;50.95;99641.31;7317828;19;129511;-41
2023/03/29 07:54:07;;;;;;;;;;;;;;;23.52;51.27;99655.69;7317357;19;129964;-41
2023/03/29 07:56:32;;;;;;;;;;;;;;;23.47;51.92;99670.25;7316886;19;128988;-40
2023/03/29 07:58:58;;;;;;;;;;;;;;;23.41;51.56;99655.94;7315280;19;128906;-41
2023/03/29 08:01:23;;;;;;;;;;;;;;;23.45;51.34;99651.22;7317202;19;130102;-41
2023/03/29 08:03:48;;;;;;;;;;;;;;;23.50;52.11;99655.06;7314056;19;130290;-40
2023/03/29 08:06:15;;;;;;;;;;;;;;;23.61;51.77;99660.06;7313225;19;129195;-40
2023/03/29 08:08:40;;;;;;;;;;;;;;;23.71;50.95;99668.69;7314893;19;129931;-40
2023/03/29 08:11:07;;;;;;;;;;;;;;;23.82;51.12;99662.34;7316994;19;129041;-41
2023/03/29 08:13:33;;;;;;;;;;;;;;;23.80;50.95;99645.94;7316340;19;130386;-40
2023/03/29 08:15:59;;;;;;;;;;;;;;;23.96;50.87;99673.16;7314013;19;128982;-40
2023/03/29 08:18:24;;;;;;;;;;;;;;;24.07;49.71;99664.22;7314762;19;129306;-41
2023/03/29 08:20:50;;;;;;;;;;;;;;;24.17;49.55;99657.91;7316949;19;129933;-40
2023/03/29 08:23:15;;;;;;;;;;;;;;;24.28;49.37;99657.63;7316223;19;129421;-40
2023/03/29 08:25:41;;;;;;;;;;;;;;;24.38;49.38;99663.59;7315922;19;129430;-41
2023/03/29 08:28:06;;;;;;;;;;;;;;;24.46;49.23;99661.00;7313860;19;129085;-41
2023/03/29 08:30:32;;;;;;;;;;;;;;;24.47;49.47;99659.22;7316918;19;129392;-40
2023/03/29 08:32:57;;;;;;;;;;;;;;;24.43;49.25;99650.81;7316509;19;129714;-41
2023/03/29 08:35:22;;;;;;;;;;;;;;;24.32;49.56;99660.78;7314535;19;129429;-41
2023/03/29 08:37:48;;;;;;;;;;;;;;;24.25;49.75;99657.94;7314525;19;129375;-39
2023/03/29 08:40:21;;;;;;;;;;;;;;;24.14;49.60;99652.94;7316320;19;129788;-41
2023/03/29 08:43:00;;;;;;;;;;;;;;;24.06;50.48;99645.03;7313236;19;130127;-41
2023/03/29 08:45:44;;;;;;;;;;;;;;;23.85;50.36;99639.25;7315581;19;128819;-41
2023/03/29 08:48:09;;;;;;;;;;;;;;;23.74;51.05;99647.38;7314705;19;128831;-41
2023/03/29 08:50:52;;;;;;;;;;;;;;;23.61;50.96;99649.56;7315700;19;129113;-40
2023/03/29 08:53:17;;;;;;;;;;;;;;;23.49;51.26;99650.75;7314190;19;129687;-41
2023/03/29 08:55:44;;;;;;;;;;;;;;;23.45;52.12;99644.19;7314719;19;129576;-40
2023/03/29 08:58:13;;;;;;;;;;;;;;;23.52;51.76;99649.66;7314354;19;129024;-41
2023/03/29 09:00:46;;;;;;;;;;;;;;;23.43;52.00;99625.13;7315974;19;129261;-41
2023/03/29 09:03:20;;;;;;;;;;;;;;;23.66;51.19;99636.81;7315480;19;129221;-41
2023/03/29 09:05:47;;;;;;;;;;;;;;;23.76;50.74;99632.28;7315640;19;128818;-41
2023/03/29 09:08:15;;;;;;;;;;;;;;;23.75;50.58;99609.63;7313162;19;129021;-41
2023/03/29 09:11:09;;;;;;;;;;;;;;;23.99;50.75;99628.22;7314907;19;129972;-41
2023/03/29 09:13:41;;;;;;;;;;;;;;;24.12;50.62;99633.88;7314249;19;129914;-41
2023/03/29 09:16:14;;;;;;;;;;;;;;;24.18;50.33;99621.94;7310654;19;128924;-41
2023/03/29 09:18:46;;;;;;;;;;;;;;;24.27;49.94;99621.84;7313670;19;129349;-40
2023/03/29 09:21:15;;;;;;;;;;;;;;;24.41;49.45;99623.84;7315016;19;129490;-40
2023/03/29 09:23:46;;;;;;;;;;;;;;;24.48;49.28;99618.78;7314714;19;129681;-41
2023/03/29 09:26:27;;;;;;;;;;;;;;;24.53;49.13;99620.97;7315121;19;128962;-40
2023/03/29 09:28:52;;;;;;;;;;;;;;;24.49;49.60;99620.47;7312926;19;129241;-41
2023/03/29 09:31:21;;;;;;;;;;;;;;;24.40;49.35;99616.97;7314599;19;129465;-41
2023/03/29 09:33:50;;;;;;;;;;;;;;;24.13;49.79;99596.13;7313196;19;129253;-40
2023/03/29 09:36:16;;;;;;;;;;;;;;;24.16;49.94;99622.06;7312433;19;129018;-41
2023/03/29 09:38:42;;;;;;;;;;;;;;;24.05;49.97;99616.25;7311995;19;129158;-41
2023/03/29 09:41:15;;;;;;;;;;;;;;;23.80;50.93;99598.69;7314159;19;129386;-41
2023/03/29 09:43:41;;;;;;;;;;;;;;;23.78;50.71;99609.34;7314241;19;129642;-40
2023/03/29 09:46:20;;;;;;;;;;;;;;;23.67;51.46;99611.41;7312646;19;129619;-41
2023/03/29 09:48:47;;;;;;;;;;;;;;;23.56;51.41;99612.44;7312125;19;128921;-41
2023/03/29 09:51:13;;;;;;;;;;;;;;;23.51;51.51;99616.50;7314521;19;130211;-41
2023/03/29 09:53:38;;;;;;;;;;;;;;;23.52;51.56;99618.97;7313101;19;129119;-39
2023/03/29 09:56:05;;;;;;;;;;;;;;;23.56;51.82;99611.59;7309933;19;129640;-41
2023/03/29 09:58:31;;;;;;;;;;;;;;;23.66;51.77;99610.56;7312337;19;129166;-41
2023/03/29 10:00:58;;;;;;;;;;;;;;;23.73;51.33;99616.84;7312377;19;130168;-40
2023/03/29 10:03:24;;;;;;;;;;;;;;;23.87;50.98;99613.66;7313210;19;129139;-41
2023/03/29 10:05:54;;;;;;;;;;;;;;;23.93;50.99;99615.66;7312494;19;128812;-40
2023/03/29 10:08:21;;;;;;;;;;;;;;;24.06;50.76;99600.38;7312142;19;130475;-40
2023/03/29 10:10:47;;;;;;;;;;;;;;;24.20;50.46;99599.78;7313802;19;129481;-41
2023/03/29 10:13:15;;;;;;;;;;;;;;;24.30;49.81;99595.22;7312454;19;129083;-42
2023/03/29 10:15:41;;;;;;;;;;;;;;;24.36;49.19;99589.34;7311427;19;129305;-40
2023/03/29 10:18:10;;;;;;;;;;;;;;;24.34;49.29;99562.41;7312502;19;128948;-41
2023/03/29 10:20:37;;;;;;;;;;;;;;;24.34;49.20;99565.06;7313200;19;129869;-41
2023/03/29 10:23:04;;;;;;;;;;;;;;;24.44;49.37;99580.69;7311928;19;129100;-40
2023/03/29 10:25:34;;;;;;;;;;;;;;;24.37;49.54;99583.13;7312562;19;129111;-41
2023/03/29 10:28:05;;;;;;;;;;;;;;;24.30;50.12;99584.72;7312520;19;129415;-40
2023/03/29 10:30:32;;;;;;;;;;;;;;;24.17;50.47;99586.13;7320222;19;129092;-41
2023/03/29 10:32:58;;;;;;;;;;;;;;;24.03;50.03;99571.75;7318895;19;129648;-40
2023/03/29 10:35:28;;;;;;;;;;;;;;;23.91;51.07;99582.66;7318640;19;128958;-40
2023/03/29 10:37:55;;;;;;;;;;;;;;;23.81;50.75;99587.19;7317384;19;129167;-41
2023/03/29 10:40:31;;;;;;;;;;;;;;;23.69;51.62;99578.75;7319175;19;129336;-39
2023/03/29 10:42:57;;;;;;;;;;;;;;;23.55;51.66;99571.41;7319963;19;129784;-41
2023/03/29 10:45:30;;;;;;;;;;;;;;;23.43;51.90;99569.19;7319201;19;128800;-41
2023/03/29 10:47:56;;;;;;;;;;;;;;;23.39;52.58;99576.53;7317016;19;130399;-41
2023/03/29 10:50:22;;;;;;;;;;;;;;;23.29;52.58;99546.94;7319045;19;129425;-41
2023/03/29 10:52:49;;;;;;;;;;;;;;;23.44;52.65;99563.78;7319004;19;129208;-41
2023/03/29 10:55:14;;;;;;;;;;;;;;;23.55;52.31;99574.03;7316716;19;129204;-41
2023/03/29 10:57:43;;;;;;;;;;;;;;;23.67;51.24;99564.16;7318507;19;128972;-41
2023/03/29 11:00:14;;;;;;;;;;;;;;;23.78;51.01;99562.09;7316203;19;129172;-41
2023/03/29 11:02:50;;;;;;;;;;;;;;;23.90;50.62;99566.09;7318907;19;129975;-41
2023/03/29 11:05:20;;;;;;;;;;;;;;;23.99;50.75;99552.06;7315745;19;129368;-41
2023/03/29 11:08:00;;;;;;;;;;;;;;;24.10;50.85;99558.84;7316805;19;129156;-41
2023/03/29 11:10:44;;;;;;;;;;;;;;;24.07;49.68;99525.00;7316165;19;129756;-40
2023/03/29 11:13:20;;;;;;;;;;;;;;;24.34;49.66;99548.44;7318288;19;129462;-41
2023/03/29 11:15:47;;;;;;;;;;;;;;;24.39;49.94;99540.91;7314596;19;128923;-40
2023/03/29 11:18:16;;;;;;;;;;;;;;;24.34;49.72;99538.78;7318801;19;129562;-41
2023/03/29 11:20:47;;;;;;;;;;;;;;;24.26;49.84;99536.09;7315772;19;129570;-41
2023/03/29 11:23:12;;;;;;;;;;;;;;;24.19;49.74;99529.00;7316991;19;129880;-40
2023/03/29 11:25:37;;;;;;;;;;;;;;;24.09;50.66;99529.13;7316132;19;130201;-41
2023/03/29 11:28:06;;;;;;;;;;;;;;;23.97;51.00;99532.97;7316970;19;130036;-41
2023/03/29 11:30:35;;;;;;;;;;;;;;;23.77;50.93;99509.72;7316139;19;129444;-41
2023/03/29 11:33:03;;;;;;;;;;;;;;;23.76;51.27;99529.91;7317696;19;129209;-41
2023/03/29 11:35:28;;;;;;;;;;;;;;;23.52;51.97;99498.25;7315127;19;129295;-40
2023/03/29 11:37:54;;;;;;;;;;;;;;;23.51;51.91;99522.84;7316339;19;128818;-39
2023/03/29 11:40:38;;;;;;;;;;;;;;;23.44;52.31;99520.97;7317224;19;128997;-41
2023/03/29 11:43:07;;;;;;;;;;;;;;;23.39;52.17;99521.44;7317748;19;129237;-41
2023/03/29 11:45:38;;;;;;;;;;;;;;;23.30;52.51;99497.94;7317177;19;129266;-41
2023/03/29 11:48:06;;;;;;;;;;;;;;;23.49;52.51;99509.06;7315331;19;129154;-41
2023/03/29 11:50:40;;;;;;;;;;;;;;;23.60;52.14;99508.78;7317438;19;129372;-41
2023/03/29 11:53:12;;;;;;;;;;;;;;;23.69;51.84;99501.78;7317673;19;129307;-41
2023/03/29 11:55:38;;;;;;;;;;;;;;;23.85;51.34;99500.09;7315640;19;128784;-41
2023/03/29 11:58:21;;;;;;;;;;;;;;;23.93;50.54;99496.69;7316344;19;128851;-40
2023/03/29 12:00:54;;;;;;;;;;;;;;;24.06;50.45;99494.47;7317593;19;129321;-41
2023/03/29 12:03:38;;;;;;;;;;;;;;;24.21;49.92;99493.69;7315467;19;129175;-40
2023/03/29 12:06:04;;;;;;;;;;;;;;;24.27;49.85;99490.47;7316027;19;129406;-40
2023/03/29 12:08:32;;;;;;;;;;;;;;;24.35;49.82;99497.53;7315547;19;129180;-40
2023/03/29 12:11:18;;;;;;;;;;;;;;;24.39;49.49;99494.41;7316896;19;129571;-40
2023/03/29 12:13:47;;;;;;;;;;;;;;;24.14;49.55;99463.81;7314171;19;132399;-40
2023/03/29 12:16:31;;;;;;;;;;;;;;;24.13;49.72;99472.66;7314952;19;129327;-41
2023/03/29 12:19:00;;;;;;;;;;;;;;;24.12;50.11;99486.78;7313894;19;129444;-41
2023/03/29 12:21:27;;;;;;;;;;;;;;;24.00;50.22;99472.28;7316876;19;129138;-40
2023/03/29 12:23:52;;;;;;;;;;;;;;;23.90;51.12;99476.81;7317214;19;129343;-40
2023/03/29 12:26:35;;;;;;;;;;;;;;;23.82;50.85;99478.56;7316926;19;129227;-41
2023/03/29 12:29:04;;;;;;;;;;;;;;;23.62;51.42;99467.47;7312504;19;129557;-41
2023/03/29 12:31:38;;;;;;;;;;;;;;;23.56;51.79;99465.47;7316843;19;129570;-40
2023/03/29 12:34:15;;;;;;;;;;;;;;;23.44;52.42;99456.22;7315415;19;129115;-41
2023/03/29 12:36:49;;;;;;;;;;;;;;;23.33;52.69;99456.47;7314452;19;129542;-40
2023/03/29 12:39:16;;;;;;;;;;;;;;;23.27;52.88;99457.06;7313525;19;129068;-39
2023/03/29 12:41:47;;;;;;;;;;;;;;;23.29;52.86;99460.38;7316467;19;128988;-41